New England — V7HF3 — position and weather

sailwx.info

Track history (hours):
 
Tides and Currents Weather Stations Pressure Air Temp Water Temp Dewpoint Dewpoint Depression Visibility Wind Speed Wind Dir Waves Ship Positions

New England

Last reported at 2014-Oct-19 11:05 UTC. Time now 2014-Oct-26 04:28 UTC.
Position N 43°37' W 069°57'.

Length 183 m; draft 7 m.

Type: Tanker. MMSI: 538002220.

Date/timePositionNaut miles runAvg speedWind from/ knotsBaromVisibWave heightAir tempDewpointWater temp
2014-Oct-19 11:05N 43°37' W 069°57'713.0
2014-Oct-19 10:33N 43°37' W 070°07'  
2014-Oct-15 09:31N 43°07' W 069°30'1713.8
2014-Oct-15 08:19N 43°05' W 069°53'1013.3
2014-Oct-15 07:33N 43°04' W 070°07'1413.5
2014-Oct-15 06:33N 43°02' W 070°25'1212.4
2014-Oct-15 05:34N 43°03' W 070°42'1 0.1
2014-Oct-14 09:34N 43°05' W 070°43'5 4.5
2014-Oct-14 08:32N 43°01' W 070°38'2 1.6
2014-Oct-14 07:28N 43°02' W 070°36'  
Track history (hours):
 
Tides and Currents Weather Stations Pressure Air Temp Water Temp Dewpoint Dewpoint Depression Visibility Wind Speed Wind Dir Waves Ship Positions

New England

Last reported at 2014-Oct-19 11:05 UTC. Time now 2014-Oct-26 04:28 UTC.
Position N 43°37' W 069°57'.

Length 183 m; draft 7 m.

Type: Tanker. MMSI: 538002220.

Date/timePositionNaut miles runAvg speedWind from/ knotsBaromVisibWave heightAir tempDewpointWater temp
2014-Oct-19 11:05N 43°37' W 069°57'713.0
2014-Oct-19 10:33N 43°37' W 070°07'  
2014-Oct-15 09:31N 43°07' W 069°30'1713.8
2014-Oct-15 08:19N 43°05' W 069°53'1013.3
2014-Oct-15 07:33N 43°04' W 070°07'1413.5
2014-Oct-15 06:33N 43°02' W 070°25'1212.4
2014-Oct-15 05:34N 43°03' W 070°42'1 0.1
2014-Oct-14 09:34N 43°05' W 070°43'5 4.5
2014-Oct-14 08:32N 43°01' W 070°38'2 1.6
2014-Oct-14 07:28N 43°02' W 070°36'  

Dump ship's entire track history